Decoded Metar for VOCL (CALICUT in INDIA) (IATA:CCJ) | Meteo·Mobile Aviation Weather
aviador You're here:

VOCL Decoded Metar

CALICUT in INDIA
Report Time2019-02-22 15:00:00
UTC Time2019-02-22 15:08:35
Flight Rules mvfr MVFR
Wind280° at 04 kt
W.Decomp.*RWY 28: 4.0 kt HW 0.1 kt RCW
W.Rank280° ranks 4
Current wind is below 280° avg. (6.8)
Visibility6000 m
Phenomena:N/A
Clouds:N/A
Expected CloudBase > 2,400 ft AGL from Temp-Dew spread
CeilingNone
Temp28°C (ISA +14)
Dew Point22°C (70% RH)
Heat Index30.7°C
QNH1011 hPa
Density Alt2,329 ft
Elevation341 ft
Report Wrong Elevation
Raw Report
METAR VOCL 221500Z 28004KT 6000 NSC 28/22 Q1011 NOSIG=####018000080####
SAIN90 VAAH 221500

Extra information for VOCL:More info

Metar Taf Metar & Taf Last 4 Metars F.Rules Stats Wind Profile Meteogram Temp Stats Airport Information Weather charts Add Link Nearby VenuesMetar ALERT Operation Metar Decoded Social comments